sensor_id;sensor_type;location;lat;lon;timestamp;temperature;humidity
17333;DHT22;8784;50.94667800;7.08448400;2022-09-03T00:01:17;19.10;54.20
17333;DHT22;8784;50.94667800;7.08448400;2022-09-03T00:03:51;19.20;54.10
17333;DHT22;8784;50.94667800;7.08448400;2022-09-03T00:06:23;19.10;54.10
17333;DHT22;8784;50.94667800;7.08448400;2022-09-03T00:08:56;19.10;54.20
17333;DHT22;8784;50.94667800;7.08448400;2022-09-03T00:11:28;19.10;54.20
17333;DHT22;8784;50.94667800;7.08448400;2022-09-03T00:14:02;19.10;54.30
17333;DHT22;8784;50.94667800;7.08448400;2022-09-03T00:16:43;19.10;54.30
17333;DHT22;8784;50.94667800;7.08448400;2022-09-03T00:19:15;19.10;54.30
17333;DHT22;8784;50.94667800;7.08448400;2022-09-03T00:21:45;19.10;54.30
17333;DHT22;8784;50.94667800;7.08448400;2022-09-03T00:24:15;19.10;54.50
17333;DHT22;8784;50.94667800;7.08448400;2022-09-03T00:26:45;19.10;54.50
17333;DHT22;8784;50.94667800;7.08448400;2022-09-03T00:29:16;19.10;54.60
17333;DHT22;8784;50.94667800;7.08448400;2022-09-03T00:31:47;19.00;54.50
17333;DHT22;8784;50.94667800;7.08448400;2022-09-03T00:34:22;19.00;54.50
17333;DHT22;8784;50.94667800;7.08448400;2022-09-03T00:36:53;19.00;54.70
17333;DHT22;8784;50.94667800;7.08448400;2022-09-03T00:39:21;19.00;54.70
17333;DHT22;8784;50.94667800;7.08448400;2022-09-03T00:42:00;19.00;55.40
17333;DHT22;8784;50.94667800;7.08448400;2022-09-03T00:44:51;19.00;54.80
17333;DHT22;8784;50.94667800;7.08448400;2022-09-03T00:47:26;19.00;54.90
17333;DHT22;8784;50.94667800;7.08448400;2022-09-03T00:50:07;19.00;54.80
17333;DHT22;8784;50.94667800;7.08448400;2022-09-03T00:52:43;19.00;54.90
17333;DHT22;8784;50.94667800;7.08448400;2022-09-03T00:55:21;18.90;54.90
17333;DHT22;8784;50.94667800;7.08448400;2022-09-03T00:58:04;18.90;54.90
17333;DHT22;8784;50.94667800;7.08448400;2022-09-03T01:00:33;19.00;55.00
17333;DHT22;8784;50.94667800;7.08448400;2022-09-03T01:03:05;18.90;55.00
17333;DHT22;8784;50.94667800;7.08448400;2022-09-03T01:05:54;18.90;55.00
17333;DHT22;8784;50.94667800;7.08448400;2022-09-03T01:08:40;18.90;55.10
17333;DHT22;8784;50.94667800;7.08448400;2022-09-03T01:11:17;18.90;55.10
17333;DHT22;8784;50.94667800;7.08448400;2022-09-03T01:13:52;18.90;55.10
17333;DHT22;8784;50.94667800;7.08448400;2022-09-03T01:16:27;18.90;55.20
17333;DHT22;8784;50.94667800;7.08448400;2022-09-03T01:19:03;18.90;55.20
17333;DHT22;8784;50.94667800;7.08448400;2022-09-03T01:21:57;18.90;55.20
17333;DHT22;8784;50.94667800;7.08448400;2022-09-03T01:24:49;18.90;55.40
17333;DHT22;8784;50.94667800;7.08448400;2022-09-03T01:27:29;19.00;55.40
17333;DHT22;8784;50.94667800;7.08448400;2022-09-03T01:30:03;19.00;55.40
17333;DHT22;8784;50.94667800;7.08448400;2022-09-03T01:32:36;19.00;55.30
17333;DHT22;8784;50.94667800;7.08448400;2022-09-03T01:35:15;19.00;55.30
17333;DHT22;8784;50.94667800;7.08448400;2022-09-03T01:37:57;19.00;55.40
17333;DHT22;8784;50.94667800;7.08448400;2022-09-03T01:40:33;19.00;55.50
17333;DHT22;8784;50.94667800;7.08448400;2022-09-03T01:43:18;19.00;55.50
17333;DHT22;8784;50.94667800;7.08448400;2022-09-03T01:45:53;19.00;56.60
17333;DHT22;8784;50.94667800;7.08448400;2022-09-03T01:48:33;19.00;56.00
17333;DHT22;8784;50.94667800;7.08448400;2022-09-03T01:51:07;19.00;56.40
17333;DHT22;8784;50.94667800;7.08448400;2022-09-03T01:53:55;19.10;56.50
17333;DHT22;8784;50.94667800;7.08448400;2022-09-03T01:56:33;19.20;56.70
17333;DHT22;8784;50.94667800;7.08448400;2022-09-03T01:59:04;19.30;56.60
17333;DHT22;8784;50.94667800;7.08448400;2022-09-03T02:01:40;19.40;56.60
17333;DHT22;8784;50.94667800;7.08448400;2022-09-03T02:04:18;19.40;56.50
17333;DHT22;8784;50.94667800;7.08448400;2022-09-03T02:06:48;19.40;56.60
17333;DHT22;8784;50.94667800;7.08448400;2022-09-03T02:09:15;19.40;56.40
17333;DHT22;8784;50.94667800;7.08448400;2022-09-03T02:11:43;19.40;56.70
17333;DHT22;8784;50.94667800;7.08448400;2022-09-03T02:14:12;19.40;56.40
17333;DHT22;8784;50.94667800;7.08448400;2022-09-03T02:16:40;19.40;56.80
17333;DHT22;8784;50.94667800;7.08448400;2022-09-03T02:19:11;19.40;56.80
17333;DHT22;8784;50.94667800;7.08448400;2022-09-03T02:21:44;19.50;56.90
17333;DHT22;8784;50.94667800;7.08448400;2022-09-03T02:24:13;19.50;56.80
17333;DHT22;8784;50.94667800;7.08448400;2022-09-03T02:26:40;19.50;56.90
17333;DHT22;8784;50.94667800;7.08448400;2022-09-03T02:29:07;19.40;56.40
17333;DHT22;8784;50.94667800;7.08448400;2022-09-03T02:31:34;19.30;56.80
17333;DHT22;8784;50.94667800;7.08448400;2022-09-03T02:34:02;19.30;57.10
17333;DHT22;8784;50.94667800;7.08448400;2022-09-03T02:36:31;19.30;57.20
17333;DHT22;8784;50.94667800;7.08448400;2022-09-03T02:38:59;19.30;57.20
17333;DHT22;8784;50.94667800;7.08448400;2022-09-03T02:41:26;19.30;57.00
17333;DHT22;8784;50.94667800;7.08448400;2022-09-03T02:43:57;19.30;57.40
17333;DHT22;8784;50.94667800;7.08448400;2022-09-03T02:46:32;19.20;56.70
17333;DHT22;8784;50.94667800;7.08448400;2022-09-03T02:49:02;19.00;56.80
17333;DHT22;8784;50.94667800;7.08448400;2022-09-03T02:51:32;18.90;56.80
17333;DHT22;8784;50.94667800;7.08448400;2022-09-03T02:53:59;18.90;56.90
17333;DHT22;8784;50.94667800;7.08448400;2022-09-03T02:56:26;18.80;57.10
17333;DHT22;8784;50.94667800;7.08448400;2022-09-03T02:58:53;18.70;57.10
17333;DHT22;8784;50.94667800;7.08448400;2022-09-03T03:01:21;18.70;57.20
17333;DHT22;8784;50.94667800;7.08448400;2022-09-03T03:03:48;18.60;57.20
17333;DHT22;8784;50.94667800;7.08448400;2022-09-03T03:06:16;18.50;57.30
17333;DHT22;8784;50.94667800;7.08448400;2022-09-03T03:08:45;18.50;57.50
17333;DHT22;8784;50.94667800;7.08448400;2022-09-03T03:11:12;18.50;57.50
17333;DHT22;8784;50.94667800;7.08448400;2022-09-03T03:13:40;18.40;57.40
17333;DHT22;8784;50.94667800;7.08448400;2022-09-03T03:16:07;18.30;57.60
17333;DHT22;8784;50.94667800;7.08448400;2022-09-03T03:18:34;18.30;57.60
17333;DHT22;8784;50.94667800;7.08448400;2022-09-03T03:21:03;18.30;57.70
17333;DHT22;8784;50.94667800;7.08448400;2022-09-03T03:23:32;18.20;57.70
17333;DHT22;8784;50.94667800;7.08448400;2022-09-03T03:26:00;18.10;57.80
17333;DHT22;8784;50.94667800;7.08448400;2022-09-03T03:28:27;18.00;57.90
17333;DHT22;8784;50.94667800;7.08448400;2022-09-03T03:30:56;17.90;58.00
17333;DHT22;8784;50.94667800;7.08448400;2022-09-03T03:33:23;17.90;58.10
17333;DHT22;8784;50.94667800;7.08448400;2022-09-03T03:35:50;17.80;58.20
17333;DHT22;8784;50.94667800;7.08448400;2022-09-03T03:38:18;17.80;58.30
17333;DHT22;8784;50.94667800;7.08448400;2022-09-03T03:40:46;17.70;58.30
17333;DHT22;8784;50.94667800;7.08448400;2022-09-03T03:43:13;17.70;58.40
17333;DHT22;8784;50.94667800;7.08448400;2022-09-03T03:45:40;17.70;58.40
17333;DHT22;8784;50.94667800;7.08448400;2022-09-03T03:48:07;17.70;58.80
17333;DHT22;8784;50.94667800;7.08448400;2022-09-03T03:50:33;17.80;58.60
17333;DHT22;8784;50.94667800;7.08448400;2022-09-03T03:53:00;17.80;58.60
17333;DHT22;8784;50.94667800;7.08448400;2022-09-03T03:55:27;17.80;58.80
17333;DHT22;8784;50.94667800;7.08448400;2022-09-03T03:57:57;17.80;59.10
17333;DHT22;8784;50.94667800;7.08448400;2022-09-03T04:00:24;17.90;59.50
17333;DHT22;8784;50.94667800;7.08448400;2022-09-03T04:02:51;18.10;59.30
17333;DHT22;8784;50.94667800;7.08448400;2022-09-03T04:05:18;18.10;58.70
17333;DHT22;8784;50.94667800;7.08448400;2022-09-03T04:07:45;18.00;58.50
17333;DHT22;8784;50.94667800;7.08448400;2022-09-03T04:10:12;17.90;58.70
17333;DHT22;8784;50.94667800;7.08448400;2022-09-03T04:12:40;17.90;59.10
17333;DHT22;8784;50.94667800;7.08448400;2022-09-03T04:15:09;17.90;58.90
17333;DHT22;8784;50.94667800;7.08448400;2022-09-03T04:17:36;17.90;59.10
17333;DHT22;8784;50.94667800;7.08448400;2022-09-03T04:20:05;17.80;59.00
17333;DHT22;8784;50.94667800;7.08448400;2022-09-03T04:22:32;17.80;59.20
17333;DHT22;8784;50.94667800;7.08448400;2022-09-03T04:24:58;17.90;59.20
17333;DHT22;8784;50.94667800;7.08448400;2022-09-03T04:27:25;17.80;59.10
17333;DHT22;8784;50.94667800;7.08448400;2022-09-03T04:29:52;17.80;59.10
17333;DHT22;8784;50.94667800;7.08448400;2022-09-03T04:32:20;17.80;59.30
17333;DHT22;8784;50.94667800;7.08448400;2022-09-03T04:35:05;17.90;59.40
17333;DHT22;8784;50.94667800;7.08448400;2022-09-03T04:37:32;17.90;59.40
17333;DHT22;8784;50.94667800;7.08448400;2022-09-03T04:39:59;17.90;59.30
17333;DHT22;8784;50.94667800;7.08448400;2022-09-03T04:42:26;17.90;59.20
17333;DHT22;8784;50.94667800;7.08448400;2022-09-03T04:44:53;18.00;59.40
17333;DHT22;8784;50.94667800;7.08448400;2022-09-03T04:47:22;17.90;59.20
17333;DHT22;8784;50.94667800;7.08448400;2022-09-03T04:49:48;18.00;59.10
17333;DHT22;8784;50.94667800;7.08448400;2022-09-03T04:52:16;17.90;59.10
17333;DHT22;8784;50.94667800;7.08448400;2022-09-03T04:54:43;18.00;59.20
17333;DHT22;8784;50.94667800;7.08448400;2022-09-03T04:57:10;18.00;59.20
17333;DHT22;8784;50.94667800;7.08448400;2022-09-03T04:59:37;18.00;59.20
17333;DHT22;8784;50.94667800;7.08448400;2022-09-03T05:02:05;18.00;59.20
17333;DHT22;8784;50.94667800;7.08448400;2022-09-03T05:04:34;18.00;59.20
17333;DHT22;8784;50.94667800;7.08448400;2022-09-03T05:07:01;18.00;59.30
17333;DHT22;8784;50.94667800;7.08448400;2022-09-03T05:09:28;18.00;59.30
17333;DHT22;8784;50.94667800;7.08448400;2022-09-03T05:11:55;18.00;59.90
17333;DHT22;8784;50.94667800;7.08448400;2022-09-03T05:14:22;18.00;59.30
17333;DHT22;8784;50.94667800;7.08448400;2022-09-03T05:16:49;18.00;59.30
17333;DHT22;8784;50.94667800;7.08448400;2022-09-03T05:19:16;17.90;59.30
17333;DHT22;8784;50.94667800;7.08448400;2022-09-03T05:21:45;18.00;59.40
17333;DHT22;8784;50.94667800;7.08448400;2022-09-03T05:24:12;18.00;59.30
17333;DHT22;8784;50.94667800;7.08448400;2022-09-03T05:26:39;18.10;59.40
17333;DHT22;8784;50.94667800;7.08448400;2022-09-03T05:29:07;18.00;59.30
17333;DHT22;8784;50.94667800;7.08448400;2022-09-03T05:31:35;18.00;59.30
17333;DHT22;8784;50.94667800;7.08448400;2022-09-03T05:34:04;18.00;59.40
17333;DHT22;8784;50.94667800;7.08448400;2022-09-03T05:36:34;18.00;59.40
17333;DHT22;8784;50.94667800;7.08448400;2022-09-03T05:39:03;18.00;59.40
17333;DHT22;8784;50.94667800;7.08448400;2022-09-03T05:41:30;18.00;59.50
17333;DHT22;8784;50.94667800;7.08448400;2022-09-03T05:43:58;18.00;59.60
17333;DHT22;8784;50.94667800;7.08448400;2022-09-03T05:46:26;18.00;59.70
17333;DHT22;8784;50.94667800;7.08448400;2022-09-03T05:48:56;18.10;59.70
17333;DHT22;8784;50.94667800;7.08448400;2022-09-03T05:51:24;18.10;59.70
17333;DHT22;8784;50.94667800;7.08448400;2022-09-03T05:53:51;18.10;59.80
17333;DHT22;8784;50.94667800;7.08448400;2022-09-03T05:56:22;18.20;59.80
17333;DHT22;8784;50.94667800;7.08448400;2022-09-03T05:58:51;18.20;59.80
17333;DHT22;8784;50.94667800;7.08448400;2022-09-03T06:01:20;18.20;59.80
17333;DHT22;8784;50.94667800;7.08448400;2022-09-03T06:03:52;18.30;59.90
17333;DHT22;8784;50.94667800;7.08448400;2022-09-03T06:06:20;18.40;59.80
17333;DHT22;8784;50.94667800;7.08448400;2022-09-03T06:08:50;18.50;60.00
17333;DHT22;8784;50.94667800;7.08448400;2022-09-03T06:11:17;18.70;59.90
17333;DHT22;8784;50.94667800;7.08448400;2022-09-03T06:13:46;18.70;59.50
17333;DHT22;8784;50.94667800;7.08448400;2022-09-03T06:16:13;18.80;59.50
17333;DHT22;8784;50.94667800;7.08448400;2022-09-03T06:18:40;18.70;59.40
17333;DHT22;8784;50.94667800;7.08448400;2022-09-03T06:21:07;18.70;59.50
17333;DHT22;8784;50.94667800;7.08448400;2022-09-03T06:23:34;18.70;59.70
17333;DHT22;8784;50.94667800;7.08448400;2022-09-03T06:26:03;18.80;59.70
17333;DHT22;8784;50.94667800;7.08448400;2022-09-03T06:28:31;18.80;59.60
17333;DHT22;8784;50.94667800;7.08448400;2022-09-03T06:31:01;18.80;59.60
17333;DHT22;8784;50.94667800;7.08448400;2022-09-03T06:33:28;18.80;59.60
17333;DHT22;8784;50.94667800;7.08448400;2022-09-03T06:35:57;18.80;59.70
17333;DHT22;8784;50.94667800;7.08448400;2022-09-03T06:38:25;18.80;59.70
17333;DHT22;8784;50.94667800;7.08448400;2022-09-03T06:40:54;18.80;59.80
17333;DHT22;8784;50.94667800;7.08448400;2022-09-03T06:43:21;18.80;59.70
17333;DHT22;8784;50.94667800;7.08448400;2022-09-03T06:45:53;18.90;59.80
17333;DHT22;8784;50.94667800;7.08448400;2022-09-03T06:48:21;18.90;59.80
17333;DHT22;8784;50.94667800;7.08448400;2022-09-03T06:53:24;19.10;59.90
17333;DHT22;8784;50.94667800;7.08448400;2022-09-03T06:55:55;19.10;59.70
17333;DHT22;8784;50.94667800;7.08448400;2022-09-03T06:58:23;19.20;59.70
17333;DHT22;8784;50.94667800;7.08448400;2022-09-03T07:00:50;19.30;59.70
17333;DHT22;8784;50.94667800;7.08448400;2022-09-03T07:03:20;19.50;59.60
17333;DHT22;8784;50.94667800;7.08448400;2022-09-03T07:05:47;19.60;59.60
17333;DHT22;8784;50.94667800;7.08448400;2022-09-03T07:08:14;19.70;59.50
17333;DHT22;8784;50.94667800;7.08448400;2022-09-03T07:10:45;19.90;59.30
17333;DHT22;8784;50.94667800;7.08448400;2022-09-03T07:13:13;20.10;59.30
17333;DHT22;8784;50.94667800;7.08448400;2022-09-03T07:15:40;20.20;59.20
17333;DHT22;8784;50.94667800;7.08448400;2022-09-03T07:18:07;20.30;59.10
17333;DHT22;8784;50.94667800;7.08448400;2022-09-03T07:20:36;20.50;58.90
17333;DHT22;8784;50.94667800;7.08448400;2022-09-03T07:23:02;20.50;58.70
17333;DHT22;8784;50.94667800;7.08448400;2022-09-03T07:25:30;20.50;58.70
17333;DHT22;8784;50.94667800;7.08448400;2022-09-03T07:27:57;20.60;58.70
17333;DHT22;8784;50.94667800;7.08448400;2022-09-03T07:30:24;20.70;58.60
17333;DHT22;8784;50.94667800;7.08448400;2022-09-03T07:32:52;20.80;58.70
17333;DHT22;8784;50.94667800;7.08448400;2022-09-03T07:35:19;21.00;58.50
17333;DHT22;8784;50.94667800;7.08448400;2022-09-03T07:37:51;21.10;58.40
17333;DHT22;8784;50.94667800;7.08448400;2022-09-03T07:40:19;21.20;58.20
17333;DHT22;8784;50.94667800;7.08448400;2022-09-03T07:42:46;21.30;58.30
17333;DHT22;8784;50.94667800;7.08448400;2022-09-03T07:45:14;21.40;58.10
17333;DHT22;8784;50.94667800;7.08448400;2022-09-03T07:47:49;21.40;58.00
17333;DHT22;8784;50.94667800;7.08448400;2022-09-03T07:50:16;21.50;57.90
17333;DHT22;8784;50.94667800;7.08448400;2022-09-03T07:52:43;21.50;57.80
17333;DHT22;8784;50.94667800;7.08448400;2022-09-03T07:55:12;21.60;57.70
17333;DHT22;8784;50.94667800;7.08448400;2022-09-03T07:57:39;21.60;57.60
17333;DHT22;8784;50.94667800;7.08448400;2022-09-03T08:00:07;21.60;57.50
17333;DHT22;8784;50.94667800;7.08448400;2022-09-03T08:02:34;21.60;57.40
17333;DHT22;8784;50.94667800;7.08448400;2022-09-03T08:05:01;21.80;57.50
17333;DHT22;8784;50.94667800;7.08448400;2022-09-03T08:07:29;22.00;57.30
17333;DHT22;8784;50.94667800;7.08448400;2022-09-03T08:09:56;22.20;57.20
17333;DHT22;8784;50.94667800;7.08448400;2022-09-03T08:12:25;22.20;57.00
17333;DHT22;8784;50.94667800;7.08448400;2022-09-03T08:14:52;22.20;56.90
17333;DHT22;8784;50.94667800;7.08448400;2022-09-03T08:17:21;22.30;57.50
17333;DHT22;8784;50.94667800;7.08448400;2022-09-03T08:19:48;22.40;56.90
17333;DHT22;8784;50.94667800;7.08448400;2022-09-03T08:22:16;22.60;56.80
17333;DHT22;8784;50.94667800;7.08448400;2022-09-03T08:24:43;22.60;56.60
17333;DHT22;8784;50.94667800;7.08448400;2022-09-03T08:27:10;22.60;56.60
17333;DHT22;8784;50.94667800;7.08448400;2022-09-03T08:29:38;22.60;56.80
17333;DHT22;8784;50.94667800;7.08448400;2022-09-03T08:32:06;22.50;56.60
17333;DHT22;8784;50.94667800;7.08448400;2022-09-03T08:34:33;22.50;56.70
17333;DHT22;8784;50.94667800;7.08448400;2022-09-03T08:37:00;22.40;56.70
17333;DHT22;8784;50.94667800;7.08448400;2022-09-03T08:39:27;22.30;56.80
17333;DHT22;8784;50.94667800;7.08448400;2022-09-03T08:42:16;22.00;57.00
17333;DHT22;8784;50.94667800;7.08448400;2022-09-03T08:44:49;21.80;57.20
17333;DHT22;8784;50.94667800;7.08448400;2022-09-03T08:47:22;21.60;57.40
17333;DHT22;8784;50.94667800;7.08448400;2022-09-03T08:49:54;21.40;57.50
17333;DHT22;8784;50.94667800;7.08448400;2022-09-03T08:52:29;21.30;57.80
17333;DHT22;8784;50.94667800;7.08448400;2022-09-03T08:55:07;21.20;58.00
17333;DHT22;8784;50.94667800;7.08448400;2022-09-03T08:57:44;21.10;58.10
17333;DHT22;8784;50.94667800;7.08448400;2022-09-03T09:00:14;21.00;58.60
17333;DHT22;8784;50.94667800;7.08448400;2022-09-03T09:02:52;20.90;58.70
17333;DHT22;8784;50.94667800;7.08448400;2022-09-03T09:05:24;20.80;58.90
17333;DHT22;8784;50.94667800;7.08448400;2022-09-03T09:08:00;20.70;59.30
17333;DHT22;8784;50.94667800;7.08448400;2022-09-03T09:10:33;20.70;59.60
17333;DHT22;8784;50.94667800;7.08448400;2022-09-03T09:13:08;20.60;59.70
17333;DHT22;8784;50.94667800;7.08448400;2022-09-03T09:15:49;20.50;59.90
17333;DHT22;8784;50.94667800;7.08448400;2022-09-03T09:18:24;20.50;60.10
17333;DHT22;8784;50.94667800;7.08448400;2022-09-03T09:21:02;20.30;60.30
17333;DHT22;8784;50.94667800;7.08448400;2022-09-03T09:23:36;20.10;61.40
17333;DHT22;8784;50.94667800;7.08448400;2022-09-03T09:26:09;19.90;61.60
17333;DHT22;8784;50.94667800;7.08448400;2022-09-03T09:28:38;19.80;62.30
17333;DHT22;8784;50.94667800;7.08448400;2022-09-03T09:31:09;19.70;63.10
17333;DHT22;8784;50.94667800;7.08448400;2022-09-03T09:33:40;19.70;64.20
17333;DHT22;8784;50.94667800;7.08448400;2022-09-03T09:36:10;19.60;64.70
17333;DHT22;8784;50.94667800;7.08448400;2022-09-03T09:38:40;19.40;65.00
17333;DHT22;8784;50.94667800;7.08448400;2022-09-03T09:41:09;19.30;66.40
17333;DHT22;8784;50.94667800;7.08448400;2022-09-03T09:43:37;19.20;67.10
17333;DHT22;8784;50.94667800;7.08448400;2022-09-03T09:46:13;19.40;67.40
17333;DHT22;8784;50.94667800;7.08448400;2022-09-03T09:48:48;19.50;67.10
17333;DHT22;8784;50.94667800;7.08448400;2022-09-03T09:51:19;19.70;67.50
17333;DHT22;8784;50.94667800;7.08448400;2022-09-03T09:53:47;19.90;67.60
17333;DHT22;8784;50.94667800;7.08448400;2022-09-03T09:56:22;20.00;66.90
17333;DHT22;8784;50.94667800;7.08448400;2022-09-03T09:59:00;20.10;66.90
17333;DHT22;8784;50.94667800;7.08448400;2022-09-03T10:01:28;20.00;66.70
17333;DHT22;8784;50.94667800;7.08448400;2022-09-03T10:03:59;20.20;67.30
17333;DHT22;8784;50.94667800;7.08448400;2022-09-03T10:06:29;20.30;67.60
17333;DHT22;8784;50.94667800;7.08448400;2022-09-03T10:09:16;20.50;67.70
17333;DHT22;8784;50.94667800;7.08448400;2022-09-03T10:11:46;20.70;67.30
17333;DHT22;8784;50.94667800;7.08448400;2022-09-03T10:14:19;20.80;66.80
17333;DHT22;8784;50.94667800;7.08448400;2022-09-03T10:16:56;20.90;67.40
17333;DHT22;8784;50.94667800;7.08448400;2022-09-03T10:19:30;20.90;66.70
17333;DHT22;8784;50.94667800;7.08448400;2022-09-03T10:22:08;21.10;66.60
17333;DHT22;8784;50.94667800;7.08448400;2022-09-03T10:24:46;21.10;66.20
17333;DHT22;8784;50.94667800;7.08448400;2022-09-03T10:27:15;21.40;65.90
17333;DHT22;8784;50.94667800;7.08448400;2022-09-03T10:29:44;21.90;65.50
17333;DHT22;8784;50.94667800;7.08448400;2022-09-03T10:32:24;22.20;64.90
17333;DHT22;8784;50.94667800;7.08448400;2022-09-03T10:35:02;22.40;64.40
17333;DHT22;8784;50.94667800;7.08448400;2022-09-03T10:37:37;22.70;64.30
17333;DHT22;8784;50.94667800;7.08448400;2022-09-03T10:40:15;23.10;63.90
17333;DHT22;8784;50.94667800;7.08448400;2022-09-03T10:42:47;23.60;63.30
17333;DHT22;8784;50.94667800;7.08448400;2022-09-03T10:45:22;23.90;62.40
17333;DHT22;8784;50.94667800;7.08448400;2022-09-03T10:48:20;23.80;61.90
17333;DHT22;8784;50.94667800;7.08448400;2022-09-03T10:50:54;23.80;61.90
17333;DHT22;8784;50.94667800;7.08448400;2022-09-03T10:53:36;23.80;61.90
17333;DHT22;8784;50.94667800;7.08448400;2022-09-03T10:56:09;23.80;61.80
17333;DHT22;8784;50.94667800;7.08448400;2022-09-03T10:58:51;23.90;61.90
17333;DHT22;8784;50.94667800;7.08448400;2022-09-03T11:01:25;24.20;61.60
17333;DHT22;8784;50.94667800;7.08448400;2022-09-03T11:04:10;24.50;61.20
17333;DHT22;8784;50.94667800;7.08448400;2022-09-03T11:06:49;24.70;61.20
17333;DHT22;8784;50.94667800;7.08448400;2022-09-03T11:09:21;24.60;60.10
17333;DHT22;8784;50.94667800;7.08448400;2022-09-03T11:11:53;24.40;60.30
17333;DHT22;8784;50.94667800;7.08448400;2022-09-03T11:14:28;24.20;60.40
17333;DHT22;8784;50.94667800;7.08448400;2022-09-03T11:17:03;24.20;60.40
17333;DHT22;8784;50.94667800;7.08448400;2022-09-03T11:19:37;24.10;60.40
17333;DHT22;8784;50.94667800;7.08448400;2022-09-03T11:22:08;24.10;60.50
17333;DHT22;8784;50.94667800;7.08448400;2022-09-03T11:24:37;24.10;60.60
17333;DHT22;8784;50.94667800;7.08448400;2022-09-03T11:27:29;24.20;60.50
17333;DHT22;8784;50.94667800;7.08448400;2022-09-03T11:30:02;24.30;60.40
17333;DHT22;8784;50.94667800;7.08448400;2022-09-03T11:32:42;24.40;60.30
17333;DHT22;8784;50.94667800;7.08448400;2022-09-03T11:35:23;24.60;60.40
17333;DHT22;8784;50.94667800;7.08448400;2022-09-03T11:37:53;24.70;60.00
17333;DHT22;8784;50.94667800;7.08448400;2022-09-03T11:40:30;24.60;59.90
17333;DHT22;8784;50.94667800;7.08448400;2022-09-03T11:43:06;24.50;59.80
17333;DHT22;8784;50.94667800;7.08448400;2022-09-03T11:45:35;24.50;60.00
17333;DHT22;8784;50.94667800;7.08448400;2022-09-03T11:48:16;24.50;60.00
17333;DHT22;8784;50.94667800;7.08448400;2022-09-03T11:50:53;24.50;59.70
17333;DHT22;8784;50.94667800;7.08448400;2022-09-03T11:53:24;24.50;59.90
17333;DHT22;8784;50.94667800;7.08448400;2022-09-03T11:55:54;24.50;59.70
17333;DHT22;8784;50.94667800;7.08448400;2022-09-03T11:58:24;24.50;59.50
17333;DHT22;8784;50.94667800;7.08448400;2022-09-03T12:00:52;24.60;60.30
17333;DHT22;8784;50.94667800;7.08448400;2022-09-03T12:03:24;24.60;59.60
17333;DHT22;8784;50.94667800;7.08448400;2022-09-03T12:06:10;24.60;59.70
17333;DHT22;8784;50.94667800;7.08448400;2022-09-03T12:09:03;24.70;59.50
17333;DHT22;8784;50.94667800;7.08448400;2022-09-03T12:11:44;24.70;59.50
17333;DHT22;8784;50.94667800;7.08448400;2022-09-03T12:14:19;24.80;60.00
17333;DHT22;8784;50.94667800;7.08448400;2022-09-03T12:17:07;24.90;59.40
17333;DHT22;8784;50.94667800;7.08448400;2022-09-03T12:19:41;25.00;59.30
17333;DHT22;8784;50.94667800;7.08448400;2022-09-03T12:22:16;25.10;59.30
17333;DHT22;8784;50.94667800;7.08448400;2022-09-03T12:24:44;25.10;58.90
17333;DHT22;8784;50.94667800;7.08448400;2022-09-03T12:27:15;25.10;59.00
17333;DHT22;8784;50.94667800;7.08448400;2022-09-03T12:29:54;25.10;58.90
17333;DHT22;8784;50.94667800;7.08448400;2022-09-03T12:32:23;25.20;58.90
17333;DHT22;8784;50.94667800;7.08448400;2022-09-03T12:34:51;25.10;58.80
17333;DHT22;8784;50.94667800;7.08448400;2022-09-03T12:37:21;25.20;58.80
17333;DHT22;8784;50.94667800;7.08448400;2022-09-03T12:39:51;25.30;58.80
17333;DHT22;8784;50.94667800;7.08448400;2022-09-03T12:42:24;25.30;58.50
17333;DHT22;8784;50.94667800;7.08448400;2022-09-03T12:44:52;25.30;58.60
17333;DHT22;8784;50.94667800;7.08448400;2022-09-03T12:47:21;25.30;58.70
17333;DHT22;8784;50.94667800;7.08448400;2022-09-03T12:49:49;25.50;58.60
17333;DHT22;8784;50.94667800;7.08448400;2022-09-03T12:52:23;25.50;58.40
17333;DHT22;8784;50.94667800;7.08448400;2022-09-03T12:54:55;25.50;58.40
17333;DHT22;8784;50.94667800;7.08448400;2022-09-03T12:57:26;25.60;58.50
17333;DHT22;8784;50.94667800;7.08448400;2022-09-03T12:59:58;25.70;58.40
17333;DHT22;8784;50.94667800;7.08448400;2022-09-03T13:02:33;25.70;58.30
17333;DHT22;8784;50.94667800;7.08448400;2022-09-03T13:05:23;25.70;58.20
17333;DHT22;8784;50.94667800;7.08448400;2022-09-03T13:07:55;25.50;58.30
17333;DHT22;8784;50.94667800;7.08448400;2022-09-03T13:10:27;25.70;58.60
17333;DHT22;8784;50.94667800;7.08448400;2022-09-03T13:12:58;25.70;58.50
17333;DHT22;8784;50.94667800;7.08448400;2022-09-03T13:15:27;25.60;58.50
17333;DHT22;8784;50.94667800;7.08448400;2022-09-03T13:18:09;25.60;58.70
17333;DHT22;8784;50.94667800;7.08448400;2022-09-03T13:20:47;25.70;58.70
17333;DHT22;8784;50.94667800;7.08448400;2022-09-03T13:23:35;25.80;58.80
17333;DHT22;8784;50.94667800;7.08448400;2022-09-03T13:26:12;25.80;58.80
17333;DHT22;8784;50.94667800;7.08448400;2022-09-03T13:28:54;25.80;58.80
17333;DHT22;8784;50.94667800;7.08448400;2022-09-03T13:31:30;25.70;59.00
17333;DHT22;8784;50.94667800;7.08448400;2022-09-03T13:34:02;25.80;58.90
17333;DHT22;8784;50.94667800;7.08448400;2022-09-03T13:36:37;25.70;59.00
17333;DHT22;8784;50.94667800;7.08448400;2022-09-03T13:39:19;25.70;59.30
17333;DHT22;8784;50.94667800;7.08448400;2022-09-03T13:41:51;25.60;59.40
17333;DHT22;8784;50.94667800;7.08448400;2022-09-03T13:44:23;25.60;59.40
17333;DHT22;8784;50.94667800;7.08448400;2022-09-03T13:46:59;25.70;59.50
17333;DHT22;8784;50.94667800;7.08448400;2022-09-03T13:49:33;25.70;59.50
17333;DHT22;8784;50.94667800;7.08448400;2022-09-03T13:52:25;25.60;59.60
17333;DHT22;8784;50.94667800;7.08448400;2022-09-03T13:54:59;25.70;59.60
17333;DHT22;8784;50.94667800;7.08448400;2022-09-03T13:57:32;25.70;59.60
17333;DHT22;8784;50.94667800;7.08448400;2022-09-03T14:00:04;25.60;59.60
17333;DHT22;8784;50.94667800;7.08448400;2022-09-03T14:02:47;25.60;59.70